createdAt,value
2023-12-03T00:00:15.588Z,100299.78
2023-12-03T00:02:46.075Z,100302.56
2023-12-03T00:05:14.911Z,100316.38
2023-12-03T00:07:42.338Z,100326.75
2023-12-03T00:10:10.060Z,100308.22
2023-12-03T00:12:39.896Z,100317.03
2023-12-03T00:15:07.608Z,100312.91
2023-12-03T00:17:34.870Z,100325.84
2023-12-03T00:20:02.062Z,100316.09
2023-12-03T00:22:29.217Z,100318.78
2023-12-03T00:24:56.430Z,100334.34
2023-12-03T00:27:23.517Z,100331.09
2023-12-03T00:29:50.739Z,100336.84
2023-12-03T00:32:17.957Z,100339.44
2023-12-03T00:35:03.582Z,100355.47
2023-12-03T00:37:30.899Z,100356.31
2023-12-03T00:39:58.132Z,100385.25
2023-12-03T00:42:25.202Z,100387.75
2023-12-03T00:44:52.330Z,100375.13
2023-12-03T00:47:19.521Z,100373.72
2023-12-03T00:49:46.804Z,100386.84
2023-12-03T00:52:14.012Z,100386.03
2023-12-03T00:54:41.135Z,100400.50
2023-12-03T00:57:08.379Z,100380.69
2023-12-03T00:59:35.592Z,100403.22
2023-12-03T01:02:02.830Z,100404.38
2023-12-03T01:04:30.048Z,100411.31
2023-12-03T01:06:57.817Z,100413.19
2023-12-03T01:09:25.171Z,100433.94
2023-12-03T01:11:57.236Z,100442.22
2023-12-03T01:14:24.384Z,100436.44
2023-12-03T01:16:51.525Z,100431.69
2023-12-03T01:19:18.670Z,100435.63
2023-12-03T01:21:45.769Z,100445.22
2023-12-03T01:24:13.261Z,100449.03
2023-12-03T01:26:40.349Z,100441.56
2023-12-03T01:29:07.419Z,100426.81
2023-12-03T01:31:34.432Z,100438.03
2023-12-03T01:34:01.625Z,100438.13
2023-12-03T01:36:28.898Z,100443.50
2023-12-03T01:38:56.396Z,100438.47
2023-12-03T01:41:23.506Z,100444.84
2023-12-03T01:43:53.031Z,100449.09
2023-12-03T01:46:21.798Z,100468.34
2023-12-03T01:48:50.767Z,100484.25
2023-12-03T01:51:18.547Z,100496.38
2023-12-03T01:53:46.650Z,100491.69
2023-12-03T01:56:14.276Z,100503.66
2023-12-03T01:58:42.225Z,100504.28
2023-12-03T02:01:10.034Z,100502.38
2023-12-03T02:03:37.190Z,100520.00
2023-12-03T02:06:09.672Z,100509.63
2023-12-03T02:08:38.419Z,100499.22
2023-12-03T02:11:07.358Z,100506.13
2023-12-03T02:13:37.519Z,100504.06
2023-12-03T02:16:05.160Z,100509.28
2023-12-03T02:18:35.848Z,100504.88
2023-12-03T02:21:03.604Z,100521.94
2023-12-03T02:23:31.871Z,100548.91
2023-12-03T02:25:59.875Z,100546.25
2023-12-03T02:28:26.993Z,100504.03
2023-12-03T02:30:54.337Z,100539.06
2023-12-03T02:33:21.879Z,100533.88
2023-12-03T02:35:49.211Z,100536.25
2023-12-03T02:38:16.456Z,100550.75
2023-12-03T02:40:43.648Z,100565.75
2023-12-03T02:43:11.002Z,100574.25
2023-12-03T02:45:38.326Z,100587.34
2023-12-03T02:48:05.888Z,100589.69
2023-12-03T02:50:32.993Z,100600.25
2023-12-03T02:53:00.038Z,100605.91
2023-12-03T02:55:27.179Z,100616.97
2023-12-03T02:57:54.267Z,100626.44
2023-12-03T03:00:21.624Z,100622.31
2023-12-03T03:02:48.817Z,100608.16
2023-12-03T03:05:16.014Z,100627.03
2023-12-03T03:07:43.178Z,100649.72
2023-12-03T03:10:10.587Z,100652.88
2023-12-03T03:12:37.740Z,100660.41
2023-12-03T03:15:05.358Z,100665.13
2023-12-03T03:17:32.588Z,100667.75
2023-12-03T03:19:59.775Z,100612.66
2023-12-03T03:22:26.853Z,100675.44
2023-12-03T03:24:54.035Z,100673.81
2023-12-03T03:27:21.187Z,100685.78
2023-12-03T03:29:49.120Z,100682.91
2023-12-03T03:32:16.299Z,100687.28
2023-12-03T03:34:43.451Z,100667.00
2023-12-03T03:37:10.648Z,100664.56
2023-12-03T03:39:37.849Z,100701.03
2023-12-03T03:42:05.278Z,100677.41
2023-12-03T03:44:32.474Z,100695.78
2023-12-03T03:46:59.818Z,100711.06
2023-12-03T03:49:27.029Z,100709.56
2023-12-03T03:51:55.309Z,100706.91
2023-12-03T03:54:22.531Z,100705.69
2023-12-03T03:56:49.759Z,100729.13
2023-12-03T03:59:16.958Z,100694.59
2023-12-03T04:01:45.214Z,100729.75
2023-12-03T04:04:13.367Z,100738.81
2023-12-03T04:06:41.876Z,100759.78
2023-12-03T04:09:09.858Z,100751.25
2023-12-03T04:11:44.499Z,100774.34
2023-12-03T04:14:17.143Z,100772.88
2023-12-03T04:16:44.991Z,100779.81
2023-12-03T04:19:13.117Z,100771.88
2023-12-03T04:21:41.063Z,100749.13
2023-12-03T04:24:08.474Z,100768.25
2023-12-03T04:26:36.261Z,100779.34
2023-12-03T04:29:03.540Z,100790.78
2023-12-03T04:31:30.654Z,100773.91
2023-12-03T04:33:58.069Z,100798.81
2023-12-03T04:36:25.890Z,100814.38
2023-12-03T04:38:53.745Z,100809.75
2023-12-03T04:41:21.139Z,100804.78
2023-12-03T04:43:48.330Z,100832.09
2023-12-03T04:46:15.868Z,100856.25
2023-12-03T04:48:43.826Z,100873.00
2023-12-03T04:51:14.042Z,100889.44
2023-12-03T04:53:41.503Z,100880.28
2023-12-03T04:56:09.267Z,100869.09
2023-12-03T04:58:36.347Z,100863.06
2023-12-03T05:01:03.825Z,100881.81
2023-12-03T05:03:31.127Z,100872.22
2023-12-03T05:05:58.321Z,100849.03
2023-12-03T05:08:25.515Z,100909.31
2023-12-03T05:10:52.649Z,100885.41
2023-12-03T05:13:19.984Z,100899.28
2023-12-03T05:15:47.201Z,100897.16
2023-12-03T05:18:14.896Z,100907.28
2023-12-03T05:20:42.594Z,100909.41
2023-12-03T05:23:09.973Z,100929.53
2023-12-03T05:25:37.254Z,100939.31
2023-12-03T05:28:04.814Z,100947.47
2023-12-03T05:30:31.937Z,100952.38
2023-12-03T05:33:02.123Z,100966.44
2023-12-03T05:35:29.270Z,100980.22
2023-12-03T05:37:56.397Z,100971.41
2023-12-03T05:40:23.515Z,100975.22
2023-12-03T05:42:50.625Z,100992.56
2023-12-03T05:45:17.904Z,100990.69
2023-12-03T05:47:45.627Z,101006.31
2023-12-03T05:50:12.917Z,101011.78
2023-12-03T05:52:40.122Z,101013.41
2023-12-03T05:55:07.597Z,101038.59
2023-12-03T05:57:34.778Z,101044.38
2023-12-03T06:00:01.844Z,101050.81
2023-12-03T06:02:35.478Z,100996.72
2023-12-03T06:05:03.846Z,101027.81
2023-12-03T06:07:31.395Z,101055.59
2023-12-03T06:09:58.560Z,101044.47
2023-12-03T06:12:25.665Z,101063.19
2023-12-03T06:14:52.824Z,101054.75
2023-12-03T06:17:19.875Z,101064.00
2023-12-03T06:19:46.987Z,101063.94
2023-12-03T06:22:14.233Z,101073.72
2023-12-03T06:24:41.432Z,101086.41
2023-12-03T06:27:08.556Z,101088.41
2023-12-03T06:29:35.696Z,101088.03
2023-12-03T06:32:02.934Z,101083.44
2023-12-03T06:34:30.613Z,101081.66
2023-12-03T06:36:59.689Z,101089.78
2023-12-03T06:39:26.946Z,101116.09
2023-12-03T06:41:54.382Z,101121.81
2023-12-03T06:44:31.119Z,101127.25
2023-12-03T06:47:06.598Z,101142.00
2023-12-03T06:49:33.861Z,101126.81
2023-12-03T06:52:01.017Z,101134.22
2023-12-03T06:54:28.476Z,101156.78
2023-12-03T06:56:55.694Z,101166.97
2023-12-03T06:59:22.761Z,101182.97
2023-12-03T07:01:49.830Z,101176.09
2023-12-03T07:04:17.052Z,101196.16
2023-12-03T07:06:44.343Z,101194.53
2023-12-03T07:09:36.547Z,101154.59
2023-12-03T07:12:00.261Z,101203.59
2023-12-03T07:14:27.374Z,101198.66
2023-12-03T07:16:54.495Z,101210.84
2023-12-03T07:19:21.647Z,101233.56
2023-12-03T07:21:48.835Z,101237.88
2023-12-03T07:24:15.953Z,101244.88
2023-12-03T07:26:46.187Z,101246.16
2023-12-03T07:29:13.417Z,101228.56
2023-12-03T07:31:40.532Z,101248.75
2023-12-03T07:34:07.642Z,101251.91
2023-12-03T07:36:34.882Z,101267.03
2023-12-03T07:39:02.102Z,101268.28
2023-12-03T07:41:29.283Z,101254.41
2023-12-03T07:43:57.014Z,101287.88
2023-12-03T07:46:24.095Z,101300.44
2023-12-03T07:48:51.466Z,101282.63
2023-12-03T07:51:18.830Z,101296.25
2023-12-03T07:53:46.199Z,101299.88
2023-12-03T07:56:14.271Z,101284.28
2023-12-03T07:58:41.341Z,101308.41
2023-12-03T08:01:08.969Z,101305.41
2023-12-03T08:03:36.223Z,101304.56
2023-12-03T08:06:03.682Z,101341.81
2023-12-03T08:08:30.832Z,101347.06
2023-12-03T08:10:58.171Z,101345.94
2023-12-03T08:13:25.438Z,101357.63
2023-12-03T08:15:52.612Z,101347.34
2023-12-03T08:18:19.856Z,101364.16
2023-12-03T08:20:47.013Z,101375.41
2023-12-03T08:23:14.098Z,101378.50
2023-12-03T08:25:41.210Z,101373.72
2023-12-03T08:28:08.536Z,101374.53
2023-12-03T08:30:36.038Z,101377.41
2023-12-03T08:33:03.506Z,101378.53
2023-12-03T08:35:32.769Z,101376.94
2023-12-03T08:38:00.506Z,101362.44
2023-12-03T08:40:28.428Z,101380.75
2023-12-03T08:42:55.970Z,101377.16
2023-12-03T08:45:23.534Z,101358.75
2023-12-03T08:47:51.150Z,101366.16
2023-12-03T08:50:20.261Z,101369.09
2023-12-03T08:52:49.113Z,101383.41
2023-12-03T08:55:18.022Z,101384.06
2023-12-03T08:57:47.076Z,101357.66
2023-12-03T09:00:17.131Z,101375.22
2023-12-03T09:02:46.515Z,101358.84
2023-12-03T09:05:16.031Z,101383.19
2023-12-03T09:07:43.670Z,101384.88
2023-12-03T09:10:11.428Z,101346.66
2023-12-03T09:12:40.143Z,101391.53
2023-12-03T09:15:10.647Z,101398.66
2023-12-03T09:17:38.514Z,101367.81
2023-12-03T09:20:07.540Z,101376.13
2023-12-03T09:22:35.425Z,101367.97
2023-12-03T09:25:03.217Z,101372.34
2023-12-03T09:27:31.128Z,101368.44
2023-12-03T09:29:58.744Z,101353.63
2023-12-03T09:32:26.446Z,101355.91
2023-12-03T09:34:54.034Z,101369.44
2023-12-03T09:37:22.883Z,101373.47
2023-12-03T09:39:50.560Z,101386.25
2023-12-03T09:42:20.153Z,101391.03
2023-12-03T09:45:05.615Z,101381.56
2023-12-03T09:47:38.131Z,101355.88
2023-12-03T09:50:06.930Z,101360.34
2023-12-03T09:52:37.632Z,101369.16
2023-12-03T09:55:07.274Z,101356.72
2023-12-03T09:57:39.712Z,101359.91
2023-12-03T10:00:09.375Z,101371.56
2023-12-03T10:02:41.097Z,101379.44
2023-12-03T10:05:09.779Z,101366.22
2023-12-03T10:07:40.512Z,101355.44
2023-12-03T10:10:11.825Z,101389.63
2023-12-03T10:12:44.850Z,101338.06
2023-12-03T10:15:14.073Z,101379.16
2023-12-03T10:17:44.141Z,101383.34
2023-12-03T10:20:29.363Z,101388.63
2023-12-03T10:23:03.651Z,101376.91
2023-12-03T10:25:37.500Z,101388.53
2023-12-03T10:28:07.246Z,101376.88
2023-12-03T10:30:35.369Z,101399.69
2023-12-03T10:33:04.285Z,101401.59
2023-12-03T10:35:36.563Z,101399.56
2023-12-03T10:38:11.491Z,101398.16
2023-12-03T10:40:39.512Z,101393.44
2023-12-03T10:43:07.208Z,101379.84
2023-12-03T10:45:35.436Z,101387.31
2023-12-03T10:48:03.471Z,101401.16
2023-12-03T10:50:31.950Z,101397.59
2023-12-03T10:53:03.428Z,101398.09
2023-12-03T10:55:31.282Z,101387.78
2023-12-03T10:58:05.204Z,101385.06
2023-12-03T11:00:45.462Z,101407.09
2023-12-03T11:03:19.480Z,101395.38
2023-12-03T11:05:54.201Z,101402.19
2023-12-03T11:08:26.556Z,101392.81
2023-12-03T11:10:54.569Z,101410.13
2023-12-03T11:13:29.570Z,101390.03
2023-12-03T11:16:07.302Z,101409.25
2023-12-03T11:18:40.112Z,101409.56
2023-12-03T11:21:51.347Z,101413.63
2023-12-03T11:24:49.842Z,101412.72
2023-12-03T11:27:17.864Z,101408.50
2023-12-03T11:29:57.050Z,101443.78
2023-12-03T11:32:33.271Z,101439.75
2023-12-03T11:35:14.666Z,101462.22
2023-12-03T11:40:35.940Z,101465.53
2023-12-03T11:43:07.284Z,101448.28
2023-12-03T11:45:44.566Z,101476.22
2023-12-03T11:48:12.566Z,101463.19
2023-12-03T11:50:43.082Z,101460.75
2023-12-03T11:53:13.479Z,101466.00
2023-12-03T11:55:43.482Z,101473.66
2023-12-03T11:58:11.299Z,101453.63
2023-12-03T12:00:40.162Z,101465.94
2023-12-03T12:03:08.444Z,101467.25
2023-12-03T12:05:46.846Z,101471.00
2023-12-03T12:08:22.884Z,101462.22
2023-12-03T12:10:53.743Z,101460.28
2023-12-03T12:13:23.664Z,101464.38
2023-12-03T12:15:51.515Z,101481.28
2023-12-03T12:18:21.281Z,101472.53
2023-12-03T12:20:48.782Z,101450.19
2023-12-03T12:23:16.438Z,101463.78
2023-12-03T12:25:43.816Z,101452.22
2023-12-03T12:28:12.689Z,101485.81
2023-12-03T12:30:40.891Z,101499.09
2023-12-03T12:33:09.550Z,101501.50
2023-12-03T12:35:36.702Z,101508.75
2023-12-03T12:38:06.117Z,101510.47
2023-12-03T12:40:42.480Z,101516.19
2023-12-03T12:43:12.145Z,101504.25
2023-12-03T12:45:40.857Z,101531.84
2023-12-03T12:48:31.944Z,101537.63
2023-12-03T12:50:59.312Z,101538.06
2023-12-03T12:53:27.040Z,101537.28
2023-12-03T12:55:54.486Z,101502.19
2023-12-03T12:58:21.831Z,101440.28
2023-12-03T13:00:49.184Z,101538.72
2023-12-03T13:03:17.457Z,101541.06
2023-12-03T13:05:44.725Z,101554.75
2023-12-03T13:08:13.070Z,101554.75
2023-12-03T13:10:40.295Z,101552.44
2023-12-03T13:13:07.547Z,101533.50
2023-12-03T13:15:34.865Z,101527.97
2023-12-03T13:18:09.058Z,101562.94
2023-12-03T13:20:43.831Z,101546.88
2023-12-03T13:23:10.945Z,101564.88
2023-12-03T13:25:38.178Z,101564.47
2023-12-03T13:28:05.588Z,101555.78
2023-12-03T13:30:32.952Z,101579.03
2023-12-03T13:33:00.388Z,101574.28
2023-12-03T13:35:27.952Z,101577.06
2023-12-03T13:37:55.069Z,101588.25
2023-12-03T13:40:22.259Z,101583.00
2023-12-03T13:42:54.150Z,101567.84
2023-12-03T13:45:22.709Z,101546.63
2023-12-03T13:47:50.259Z,101587.06
2023-12-03T13:50:17.482Z,101587.50
2023-12-03T13:52:44.768Z,101547.84
2023-12-03T13:55:14.435Z,101594.34
2023-12-03T13:57:41.634Z,101600.38
2023-12-03T14:00:09.399Z,101608.03
2023-12-03T14:02:42.826Z,101599.19
2023-12-03T14:05:20.850Z,101582.03
2023-12-03T14:07:56.772Z,101618.13
2023-12-03T14:10:30.627Z,101588.56
2023-12-03T14:12:58.473Z,101618.97
2023-12-03T14:15:28.867Z,101540.44
2023-12-03T14:17:57.839Z,101615.00
2023-12-03T14:20:25.914Z,101555.59
2023-12-03T14:22:54.174Z,101482.06
2023-12-03T14:25:21.826Z,101543.41
2023-12-03T14:27:49.664Z,101424.44
2023-12-03T14:30:17.030Z,101496.16
2023-12-03T14:32:44.536Z,101654.88
2023-12-03T14:35:15.009Z,101630.00
2023-12-03T14:37:42.501Z,101660.09
2023-12-03T14:40:17.238Z,101637.66
2023-12-03T14:42:45.372Z,101665.78
2023-12-03T14:45:13.222Z,101672.59
2023-12-03T14:47:42.024Z,101654.16
2023-12-03T14:50:09.610Z,101631.72
2023-12-03T14:52:36.782Z,101651.38
2023-12-03T14:55:06.335Z,101659.78
2023-12-03T14:57:33.539Z,101673.03
2023-12-03T15:00:00.947Z,101690.72
2023-12-03T15:02:28.043Z,101692.69
2023-12-03T15:04:55.279Z,101624.53
2023-12-03T15:07:22.571Z,101664.22
2023-12-03T15:09:52.465Z,101696.72
2023-12-03T15:12:19.686Z,101617.28
2023-12-03T15:14:46.886Z,101704.75
2023-12-03T15:17:15.254Z,101717.19
2023-12-03T15:19:42.846Z,101709.97
2023-12-03T15:22:10.259Z,101730.88
2023-12-03T15:24:37.484Z,101739.69
2023-12-03T15:27:05.009Z,101718.78
2023-12-03T15:29:32.182Z,101714.34
2023-12-03T15:32:02.650Z,101752.47
2023-12-03T15:34:29.740Z,101737.59
2023-12-03T15:36:56.994Z,101762.09
2023-12-03T15:39:24.161Z,101773.31
2023-12-03T15:41:51.865Z,101778.53
2023-12-03T15:44:19.231Z,101772.47
2023-12-03T15:46:46.548Z,101795.78
2023-12-03T15:49:19.524Z,101769.25
2023-12-03T15:51:47.629Z,101810.16
2023-12-03T15:54:14.854Z,101818.19
2023-12-03T15:56:41.924Z,101826.97
2023-12-03T15:59:09.096Z,101825.78
2023-12-03T16:01:36.366Z,101822.09
2023-12-03T16:04:03.777Z,101835.22
2023-12-03T16:06:31.080Z,101798.69
2023-12-03T16:09:00.548Z,101818.66
2023-12-03T16:11:27.975Z,101827.06
2023-12-03T16:13:55.096Z,101822.69
2023-12-03T16:16:22.170Z,101830.25
2023-12-03T16:18:49.447Z,101775.91
2023-12-03T16:21:18.669Z,101828.28
2023-12-03T16:23:45.774Z,101846.75
2023-12-03T16:26:13.153Z,101824.97
2023-12-03T16:28:40.957Z,101830.56
2023-12-03T16:31:08.121Z,101859.47
2023-12-03T16:33:35.290Z,101861.91
2023-12-03T16:36:02.359Z,101874.69
2023-12-03T16:38:29.754Z,101867.81
2023-12-03T16:40:57.368Z,101860.56
2023-12-03T16:43:24.784Z,101868.16
2023-12-03T16:45:51.961Z,101852.84
2023-12-03T16:48:23.284Z,101851.63
2023-12-03T16:50:50.668Z,101844.78
2023-12-03T16:53:17.853Z,101848.00
2023-12-03T16:55:45.831Z,101819.38
2023-12-03T16:58:13.195Z,101865.84
2023-12-03T17:00:40.924Z,101867.00
2023-12-03T17:03:08.345Z,101869.44
2023-12-03T17:05:36.511Z,101873.38
2023-12-03T17:08:04.739Z,101844.06
2023-12-03T17:10:33.867Z,101843.16
2023-12-03T17:13:03.670Z,101803.75
2023-12-03T17:15:33.153Z,101835.47
2023-12-03T17:18:00.952Z,101822.94
2023-12-03T17:20:29.063Z,101837.88
2023-12-03T17:22:58.046Z,101846.38
2023-12-03T17:25:25.692Z,101840.31
2023-12-03T17:27:53.041Z,101836.66
2023-12-03T17:30:20.128Z,101880.50
2023-12-03T17:32:47.267Z,101860.81
2023-12-03T17:35:17.593Z,101820.84
2023-12-03T17:37:46.037Z,101888.81
2023-12-03T17:40:13.374Z,101872.66
2023-12-03T17:42:45.840Z,101884.44
2023-12-03T17:45:14.298Z,101846.13
2023-12-03T17:47:43.526Z,101871.00
2023-12-03T17:50:11.177Z,101879.06
2023-12-03T17:52:38.721Z,101877.91
2023-12-03T17:55:06.581Z,101881.44
2023-12-03T17:57:34.653Z,101885.44
2023-12-03T18:00:01.986Z,101893.81
2023-12-03T18:02:41.291Z,101886.25
2023-12-03T18:05:10.118Z,101897.47
2023-12-03T18:07:37.269Z,101867.72
2023-12-03T18:10:04.937Z,101883.72
2023-12-03T18:12:32.758Z,101905.94
2023-12-03T18:15:00.101Z,101910.25
2023-12-03T18:17:28.657Z,101902.78
2023-12-03T18:19:55.915Z,101911.03
2023-12-03T18:22:23.070Z,101911.03
2023-12-03T18:24:51.425Z,101878.03
2023-12-03T18:27:18.828Z,101897.81
2023-12-03T18:29:45.933Z,101920.00
2023-12-03T18:32:13.217Z,101917.56
2023-12-03T18:34:42.214Z,101917.94
2023-12-03T18:37:11.229Z,101862.88
2023-12-03T18:39:38.481Z,101909.50
2023-12-03T18:42:06.480Z,101905.38
2023-12-03T18:44:34.401Z,101910.16
2023-12-03T18:47:01.695Z,101911.28
2023-12-03T18:49:29.531Z,101908.34
2023-12-03T18:51:57.956Z,101904.59
2023-12-03T18:54:25.257Z,101912.53
2023-12-03T18:56:52.402Z,101923.41
2023-12-03T18:59:19.900Z,101886.69
2023-12-03T19:01:47.133Z,101875.78
2023-12-03T19:04:16.246Z,101916.44
2023-12-03T19:06:43.800Z,101915.19
2023-12-03T19:09:11.038Z,101920.75
2023-12-03T19:11:38.164Z,101921.56
2023-12-03T19:14:05.353Z,101928.78
2023-12-03T19:16:32.763Z,101911.03
2023-12-03T19:19:00.139Z,101902.28
2023-12-03T19:21:27.942Z,101920.00
2023-12-03T19:23:55.777Z,101856.34
2023-12-03T19:26:23.064Z,101915.91
2023-12-03T19:28:52.700Z,101929.59
2023-12-03T19:31:19.836Z,101968.81
2023-12-03T19:33:47.068Z,101924.88
2023-12-03T19:36:14.661Z,101938.72
2023-12-03T19:38:41.839Z,101902.06
2023-12-03T19:41:09.001Z,101945.50
2023-12-03T19:43:36.248Z,101930.00
2023-12-03T19:46:03.518Z,101931.91
2023-12-03T19:48:30.850Z,101932.94
2023-12-03T19:50:59.013Z,101951.88
2023-12-03T19:53:26.339Z,101947.72
2023-12-03T19:55:54.087Z,101936.84
2023-12-03T19:58:22.369Z,101958.19
2023-12-03T20:00:50.130Z,101947.38
2023-12-03T20:03:17.284Z,101958.44
2023-12-03T20:05:44.543Z,101953.19
2023-12-03T20:08:11.884Z,101952.78
2023-12-03T20:10:39.178Z,101932.97
2023-12-03T20:13:06.427Z,101954.19
2023-12-03T20:15:41.182Z,101955.88
2023-12-03T20:18:09.629Z,101939.75
2023-12-03T20:20:37.034Z,101951.03
2023-12-03T20:23:04.305Z,101947.28
2023-12-03T20:25:31.370Z,101967.41
2023-12-03T20:27:58.813Z,101961.72
2023-12-03T20:30:26.106Z,101959.69
2023-12-03T20:32:53.709Z,101979.50
2023-12-03T20:35:20.940Z,101988.22
2023-12-03T20:37:48.094Z,101972.94
2023-12-03T20:40:15.285Z,101985.50
2023-12-03T20:42:42.510Z,101985.53
2023-12-03T20:45:11.934Z,101992.22
2023-12-03T20:47:39.204Z,101998.94
2023-12-03T20:50:07.889Z,101979.97
2023-12-03T20:52:35.050Z,101997.72
2023-12-03T20:55:02.759Z,101994.44
2023-12-03T20:57:30.128Z,101999.31
2023-12-03T20:59:57.263Z,101995.88
2023-12-03T21:02:24.453Z,101995.56
2023-12-03T21:04:52.313Z,101999.88
2023-12-03T21:07:19.573Z,101997.44
2023-12-03T21:09:46.820Z,101995.22
2023-12-03T21:12:14.154Z,101990.56
2023-12-03T21:14:41.270Z,102011.13
2023-12-03T21:17:09.222Z,102008.31
2023-12-03T21:19:36.557Z,101997.25
2023-12-03T21:22:04.197Z,102010.31
2023-12-03T21:24:31.458Z,102025.50
2023-12-03T21:27:00.010Z,102037.69
2023-12-03T21:29:27.279Z,102016.78
2023-12-03T21:31:54.751Z,102016.75
2023-12-03T21:34:22.244Z,102045.47
2023-12-03T21:36:49.753Z,102026.53
2023-12-03T21:39:16.869Z,102040.53
2023-12-03T21:41:44.014Z,102019.38
2023-12-03T21:44:11.247Z,102042.72
2023-12-03T21:46:38.912Z,102043.03
2023-12-03T21:49:06.242Z,102058.13
2023-12-03T21:51:33.826Z,102051.28
2023-12-03T21:54:01.072Z,102049.34
2023-12-03T21:56:28.229Z,102026.56
2023-12-03T21:58:55.463Z,102056.38
2023-12-03T22:01:25.340Z,102045.81
2023-12-03T22:03:52.757Z,102069.91
2023-12-03T22:06:20.714Z,102060.72
2023-12-03T22:08:47.957Z,102071.66
2023-12-03T22:11:15.103Z,102083.13
2023-12-03T22:13:42.245Z,102087.66
2023-12-03T22:16:10.455Z,102070.78
2023-12-03T22:18:37.930Z,102071.75
2023-12-03T22:21:05.592Z,102082.19
2023-12-03T22:23:32.761Z,102094.13
2023-12-03T22:25:59.837Z,102087.63
2023-12-03T22:28:27.168Z,102093.72
2023-12-03T22:30:54.506Z,102063.03
2023-12-03T22:33:21.839Z,102092.78
2023-12-03T22:35:49.094Z,102082.97
2023-12-03T22:38:16.176Z,102076.69
2023-12-03T22:40:43.472Z,102063.72
2023-12-03T22:43:10.706Z,102095.00
2023-12-03T22:45:37.948Z,102079.53
2023-12-03T22:48:05.490Z,102087.88
2023-12-03T22:50:32.692Z,102094.38
2023-12-03T22:52:59.771Z,102088.63
2023-12-03T22:55:27.053Z,102072.59
2023-12-03T22:57:54.715Z,102091.25
2023-12-03T23:00:22.266Z,102067.50
2023-12-03T23:02:49.856Z,102094.84
2023-12-03T23:07:47.660Z,102094.69
2023-12-03T23:10:14.967Z,102077.72
2023-12-03T23:12:42.241Z,102105.16
2023-12-03T23:15:10.550Z,102104.19
2023-12-03T23:17:38.148Z,102110.66
2023-12-03T23:20:05.920Z,102123.59
2023-12-03T23:22:33.260Z,102124.84
2023-12-03T23:25:00.408Z,102118.31
2023-12-03T23:27:27.578Z,102098.91
2023-12-03T23:29:54.689Z,102120.31
2023-12-03T23:32:21.920Z,102110.22
2023-12-03T23:34:49.218Z,102132.31
2023-12-03T23:37:16.517Z,102131.53
2023-12-03T23:39:43.868Z,102129.06
2023-12-03T23:42:11.025Z,102125.69
2023-12-03T23:44:38.188Z,102130.97
2023-12-03T23:47:05.364Z,102139.38
2023-12-03T23:49:32.526Z,102110.22
2023-12-03T23:51:59.734Z,102152.97
2023-12-03T23:54:26.859Z,102124.63
2023-12-03T23:56:55.415Z,102141.50
2023-12-03T23:59:22.629Z,102145.56
